createdAt,value
2023-09-23T00:02:25.049Z,95292.94
2023-09-23T00:04:51.763Z,95306.16
2023-09-23T00:07:19.476Z,95297.84
2023-09-23T00:09:46.261Z,95295.59
2023-09-23T00:12:13.377Z,95294.69
2023-09-23T00:14:39.794Z,95305.75
2023-09-23T00:17:08.663Z,95306.97
2023-09-23T00:19:36.004Z,95314.53
2023-09-23T00:22:03.418Z,95317.56
2023-09-23T00:24:31.841Z,95314.16
2023-09-23T00:27:00.766Z,95321.13
2023-09-23T00:29:28.674Z,95319.31
2023-09-23T00:31:56.352Z,95317.22
2023-09-23T00:34:24.425Z,95300.72
2023-09-23T00:36:52.145Z,95309.13
2023-09-23T00:39:19.151Z,95316.06
2023-09-23T00:41:45.593Z,95317.00
2023-09-23T00:44:12.067Z,95305.72
2023-09-23T00:46:39.542Z,95298.66
2023-09-23T00:49:09.592Z,95298.19
2023-09-23T00:51:38.515Z,95296.34
2023-09-23T00:54:09.180Z,95292.06
2023-09-23T00:56:37.290Z,95296.56
2023-09-23T00:59:07.948Z,95291.34
2023-09-23T01:01:35.982Z,95296.34
2023-09-23T01:04:02.650Z,95300.94
2023-09-23T01:06:29.680Z,95292.28
2023-09-23T01:08:59.079Z,95295.94
2023-09-23T01:11:27.368Z,95303.03
2023-09-23T01:13:53.816Z,95315.63
2023-09-23T01:16:23.000Z,95326.44
2023-09-23T01:18:51.000Z,95327.03
2023-09-23T01:21:17.583Z,95337.47
2023-09-23T01:23:45.898Z,95337.06
2023-09-23T01:26:15.546Z,95332.69
2023-09-23T01:28:42.271Z,95345.28
2023-09-23T01:31:10.419Z,95350.13
2023-09-23T01:33:38.066Z,95351.31
2023-09-23T01:36:04.778Z,95355.56
2023-09-23T01:38:32.755Z,95360.19
2023-09-23T01:41:00.856Z,95360.75
2023-09-23T01:43:28.030Z,95369.53
2023-09-23T01:46:00.248Z,95366.97
2023-09-23T01:48:28.155Z,95373.66
2023-09-23T01:50:54.600Z,95374.84
2023-09-23T01:53:24.729Z,95379.13
2023-09-23T01:55:51.133Z,95384.84
2023-09-23T01:58:17.546Z,95383.72
2023-09-23T02:00:44.058Z,95394.22
2023-09-23T02:03:11.693Z,95400.13
2023-09-23T02:05:38.272Z,95399.75
2023-09-23T02:08:05.418Z,95409.56
2023-09-23T02:10:31.818Z,95416.03
2023-09-23T02:12:59.034Z,95414.06
2023-09-23T02:15:26.228Z,95416.94
2023-09-23T02:17:54.226Z,95407.94
2023-09-23T02:20:21.322Z,95421.22
2023-09-23T02:22:55.429Z,95424.78
2023-09-23T02:25:26.505Z,95424.22
2023-09-23T02:27:54.060Z,95435.19
2023-09-23T02:30:21.077Z,95441.88
2023-09-23T02:32:48.611Z,95451.09
2023-09-23T02:35:16.755Z,95460.44
2023-09-23T02:37:49.898Z,95462.41
2023-09-23T02:40:17.217Z,95481.88
2023-09-23T02:42:48.534Z,95473.34
2023-09-23T02:45:17.754Z,95486.03
2023-09-23T02:47:45.170Z,95492.03
2023-09-23T02:50:13.967Z,95486.63
2023-09-23T02:52:47.008Z,95508.50
2023-09-23T02:55:16.754Z,95520.03
2023-09-23T02:57:50.277Z,95530.72
2023-09-23T03:00:18.081Z,95537.88
2023-09-23T03:02:54.368Z,95539.72
2023-09-23T03:05:27.091Z,95553.22
2023-09-23T03:08:00.784Z,95552.31
2023-09-23T03:10:33.690Z,95546.19
2023-09-23T03:13:08.125Z,95548.97
2023-09-23T03:15:45.827Z,95546.56
2023-09-23T03:18:17.226Z,95563.44
2023-09-23T03:20:43.887Z,95566.19
2023-09-23T03:23:11.667Z,95574.88
2023-09-23T03:25:49.299Z,95572.00
2023-09-23T03:28:18.882Z,95571.28
2023-09-23T03:30:49.148Z,95589.53
2023-09-23T03:33:20.044Z,95584.75
2023-09-23T03:35:47.429Z,95578.78
2023-09-23T03:38:14.255Z,95581.81
2023-09-23T03:40:41.173Z,95588.16
2023-09-23T03:43:07.736Z,95595.50
2023-09-23T03:45:35.642Z,95589.13
2023-09-23T03:48:02.537Z,95603.69
2023-09-23T03:50:31.087Z,95606.41
2023-09-23T03:52:57.546Z,95598.31
2023-09-23T03:55:26.085Z,95597.91
2023-09-23T03:57:55.038Z,95606.09
2023-09-23T04:00:22.892Z,95609.94
2023-09-23T04:02:49.858Z,95604.09
2023-09-23T04:05:16.984Z,95601.78
2023-09-23T04:07:51.776Z,95591.84
2023-09-23T04:10:20.941Z,95592.97
2023-09-23T04:12:47.648Z,95590.91
2023-09-23T04:15:14.502Z,95594.94
2023-09-23T04:17:41.036Z,95594.13
2023-09-23T04:20:12.015Z,95595.31
2023-09-23T04:22:39.490Z,95588.84
2023-09-23T04:25:06.985Z,95591.25
2023-09-23T04:27:40.563Z,95595.75
2023-09-23T04:30:10.468Z,95594.56
2023-09-23T04:32:37.816Z,95605.56
2023-09-23T04:35:05.410Z,95601.78
2023-09-23T04:37:34.809Z,95611.16
2023-09-23T04:40:01.187Z,95612.31
2023-09-23T04:42:28.074Z,95625.75
2023-09-23T04:44:54.450Z,95643.03
2023-09-23T04:47:21.048Z,95646.13
2023-09-23T04:49:47.994Z,95645.97
2023-09-23T04:52:16.588Z,95650.56
2023-09-23T04:54:43.692Z,95663.16
2023-09-23T04:57:10.892Z,95674.53
2023-09-23T04:59:37.314Z,95678.56
2023-09-23T05:02:04.714Z,95682.41
2023-09-23T05:04:32.091Z,95693.16
2023-09-23T05:06:58.729Z,95699.06
2023-09-23T05:09:26.814Z,95715.41
2023-09-23T05:11:54.543Z,95712.25
2023-09-23T05:14:21.735Z,95724.13
2023-09-23T05:16:49.181Z,95726.84
2023-09-23T05:19:16.289Z,95737.66
2023-09-23T05:21:43.552Z,95741.59
2023-09-23T05:24:11.294Z,95741.78
2023-09-23T05:26:38.185Z,95736.31
2023-09-23T05:29:04.755Z,95732.00
2023-09-23T05:31:31.176Z,95725.66
2023-09-23T05:33:57.581Z,95725.41
2023-09-23T05:36:23.985Z,95737.66
2023-09-23T05:38:50.341Z,95738.25
2023-09-23T05:41:17.196Z,95743.25
2023-09-23T05:43:43.596Z,95743.50
2023-09-23T05:46:12.456Z,95743.38
2023-09-23T05:48:39.236Z,95739.38
2023-09-23T05:51:06.718Z,95729.78
2023-09-23T05:53:34.251Z,95742.56
2023-09-23T05:56:01.906Z,95740.25
2023-09-23T05:58:28.381Z,95744.94
2023-09-23T06:00:55.050Z,95746.56
2023-09-23T06:03:22.044Z,95749.44
2023-09-23T06:05:48.530Z,95745.38
2023-09-23T06:08:15.034Z,95755.25
2023-09-23T06:10:42.448Z,95763.38
2023-09-23T06:13:11.727Z,95772.59
2023-09-23T06:15:38.126Z,95772.59
2023-09-23T06:18:05.243Z,95779.97
2023-09-23T06:20:31.689Z,95787.94
2023-09-23T06:22:58.990Z,95793.19
2023-09-23T06:25:25.857Z,95795.09
2023-09-23T06:27:52.252Z,95799.88
2023-09-23T06:30:19.144Z,95817.22
2023-09-23T06:32:46.590Z,95828.72
2023-09-23T06:35:13.051Z,95831.94
2023-09-23T06:37:39.463Z,95855.41
2023-09-23T06:40:07.087Z,95870.03
2023-09-23T06:42:33.479Z,95862.63
2023-09-23T06:45:00.190Z,95882.19
2023-09-23T06:47:27.199Z,95884.69
2023-09-23T06:49:53.849Z,95889.25
2023-09-23T06:52:20.267Z,95890.72
2023-09-23T06:54:47.029Z,95905.59
2023-09-23T06:57:14.216Z,95906.72
2023-09-23T06:59:42.144Z,95907.34
2023-09-23T07:02:09.035Z,95915.16
2023-09-23T07:04:37.183Z,95921.97
2023-09-23T07:07:03.555Z,95917.84
2023-09-23T07:09:30.303Z,95928.69
2023-09-23T07:11:56.777Z,95925.63
2023-09-23T07:14:23.233Z,95936.72
2023-09-23T07:16:50.182Z,95944.03
2023-09-23T07:19:16.590Z,95950.88
2023-09-23T07:21:43.093Z,95961.41
2023-09-23T07:24:11.179Z,95960.59
2023-09-23T07:26:40.094Z,95969.41
2023-09-23T07:29:06.479Z,95969.66
2023-09-23T07:31:33.275Z,95977.09
2023-09-23T07:33:59.791Z,95983.16
2023-09-23T07:36:26.190Z,95993.78
2023-09-23T07:38:52.953Z,95990.34
2023-09-23T07:41:19.330Z,95989.88
2023-09-23T07:43:46.074Z,96000.00
2023-09-23T07:46:13.112Z,96005.91
2023-09-23T07:48:39.485Z,96012.19
2023-09-23T07:51:05.860Z,96017.06
2023-09-23T07:53:32.747Z,96022.03
2023-09-23T07:55:59.138Z,96010.91
2023-09-23T07:58:25.729Z,96024.25
2023-09-23T08:00:53.830Z,96023.44
2023-09-23T08:03:20.247Z,96032.47
2023-09-23T08:05:46.666Z,96039.63
2023-09-23T08:08:13.646Z,96043.00
2023-09-23T08:10:40.670Z,96055.88
2023-09-23T08:13:07.079Z,96050.09
2023-09-23T08:15:33.820Z,96045.75
2023-09-23T08:18:00.299Z,96057.97
2023-09-23T08:20:27.769Z,96070.69
2023-09-23T08:22:57.675Z,96071.69
2023-09-23T08:25:25.927Z,96076.19
2023-09-23T08:27:52.438Z,96073.75
2023-09-23T08:30:19.223Z,96074.41
2023-09-23T08:32:46.758Z,96088.94
2023-09-23T08:35:13.197Z,96092.19
2023-09-23T08:37:40.215Z,96090.34
2023-09-23T08:40:12.089Z,96107.63
2023-09-23T08:42:39.841Z,96094.75
2023-09-23T08:45:09.744Z,96111.19
2023-09-23T08:47:38.454Z,96111.59
2023-09-23T08:50:12.190Z,96123.25
2023-09-23T08:52:38.981Z,96130.28
2023-09-23T08:55:08.361Z,96147.81
2023-09-23T08:57:35.232Z,96145.22
2023-09-23T09:00:01.807Z,96135.66
2023-09-23T09:02:30.344Z,96134.75
2023-09-23T09:04:58.901Z,96146.38
2023-09-23T09:07:33.126Z,96148.63
2023-09-23T09:10:00.214Z,96156.94
2023-09-23T09:12:27.750Z,96162.53
2023-09-23T09:14:54.324Z,96153.72
2023-09-23T09:17:21.003Z,96164.59
2023-09-23T09:19:50.624Z,96151.94
2023-09-23T09:22:20.764Z,96146.59
2023-09-23T09:24:50.388Z,96165.47
2023-09-23T09:27:17.076Z,96167.88
2023-09-23T09:29:44.965Z,96160.00
2023-09-23T09:32:12.192Z,96168.06
2023-09-23T09:34:49.414Z,96170.78
2023-09-23T09:37:16.166Z,96168.28
2023-09-23T09:39:56.577Z,96175.38
2023-09-23T09:42:34.366Z,96169.81
2023-09-23T09:45:01.194Z,96162.00
2023-09-23T09:47:29.186Z,96167.75
2023-09-23T09:49:56.188Z,96162.63
2023-09-23T09:52:25.100Z,96156.56
2023-09-23T09:54:55.894Z,96164.72
2023-09-23T09:57:28.426Z,96141.47
2023-09-23T10:00:00.826Z,96149.97
2023-09-23T10:02:28.135Z,96150.69
2023-09-23T10:04:55.414Z,96153.13
2023-09-23T10:07:24.777Z,96160.59
2023-09-23T10:09:55.293Z,96153.09
2023-09-23T10:12:32.844Z,96155.31
2023-09-23T10:15:01.885Z,96143.53
2023-09-23T10:17:36.906Z,96164.09
2023-09-23T10:20:11.510Z,96163.66
2023-09-23T10:22:38.300Z,96164.53
2023-09-23T10:25:07.976Z,96172.09
2023-09-23T10:27:37.789Z,96156.63
2023-09-23T10:30:05.977Z,96161.63
2023-09-23T10:32:32.761Z,96152.50
2023-09-23T10:35:00.133Z,96156.28
2023-09-23T10:37:32.110Z,96151.31
2023-09-23T10:40:15.538Z,96151.44
2023-09-23T10:42:43.190Z,96154.19
2023-09-23T10:45:10.912Z,96145.38
2023-09-23T10:47:37.941Z,96158.38
2023-09-23T10:50:14.068Z,96157.28
2023-09-23T10:52:41.094Z,96156.69
2023-09-23T10:55:10.262Z,96164.25
2023-09-23T10:57:37.528Z,96177.31
2023-09-23T11:00:17.280Z,96177.97
2023-09-23T11:02:46.034Z,96175.41
2023-09-23T11:05:12.827Z,96177.19
2023-09-23T11:07:43.276Z,96187.94
2023-09-23T11:10:13.199Z,96180.03
2023-09-23T11:12:44.961Z,96184.44
2023-09-23T11:15:14.283Z,96178.78
2023-09-23T11:17:42.881Z,96173.19
2023-09-23T11:20:11.310Z,96181.56
2023-09-23T11:22:44.847Z,96193.09
2023-09-23T11:25:12.932Z,96200.41
2023-09-23T11:27:40.987Z,96201.41
2023-09-23T11:30:08.365Z,96198.13
2023-09-23T11:32:34.984Z,96209.81
2023-09-23T11:35:01.890Z,96206.88
2023-09-23T11:37:28.675Z,96199.09
2023-09-23T11:39:55.074Z,96208.06
2023-09-23T11:42:21.904Z,96218.38
2023-09-23T11:44:48.399Z,96207.31
2023-09-23T11:47:15.021Z,96203.84
2023-09-23T11:49:41.451Z,96209.69
2023-09-23T11:52:14.075Z,96209.41
2023-09-23T11:54:42.201Z,96206.03
2023-09-23T11:57:09.509Z,96206.50
2023-09-23T11:59:36.830Z,96196.00
2023-09-23T12:02:03.813Z,96204.34
2023-09-23T12:04:30.893Z,96211.25
2023-09-23T12:06:57.406Z,96217.13
2023-09-23T12:09:25.108Z,96201.78
2023-09-23T12:11:52.173Z,96205.22
2023-09-23T12:14:20.707Z,96207.41
2023-09-23T12:16:47.310Z,96207.88
2023-09-23T12:19:13.675Z,96200.34
2023-09-23T12:21:40.225Z,96215.78
2023-09-23T12:24:08.436Z,96206.06
2023-09-23T12:26:36.458Z,96204.66
2023-09-23T12:29:03.940Z,96220.47
2023-09-23T12:31:30.390Z,96213.13
2023-09-23T12:33:56.817Z,96210.69
2023-09-23T12:36:23.654Z,96203.28
2023-09-23T12:38:50.005Z,96207.19
2023-09-23T12:41:17.284Z,96210.81
2023-09-23T12:43:44.111Z,96208.78
2023-09-23T12:46:10.577Z,96212.13
2023-09-23T12:48:37.075Z,96208.28
2023-09-23T12:51:03.929Z,96210.75
2023-09-23T12:53:31.084Z,96213.53
2023-09-23T12:55:57.517Z,96212.97
2023-09-23T12:58:24.376Z,96213.03
2023-09-23T13:00:50.770Z,96220.00
2023-09-23T13:03:17.327Z,96224.94
2023-09-23T13:05:44.227Z,96224.66
2023-09-23T13:08:12.289Z,96224.34
2023-09-23T13:10:38.798Z,96222.94
2023-09-23T13:13:05.556Z,96234.59
2023-09-23T13:15:32.057Z,96232.50
2023-09-23T13:17:58.653Z,96230.06
2023-09-23T13:20:25.520Z,96241.59
2023-09-23T13:22:51.916Z,96254.50
2023-09-23T13:25:18.311Z,96252.78
2023-09-23T13:27:45.066Z,96244.50
2023-09-23T13:30:11.657Z,96254.22
2023-09-23T13:32:40.712Z,96263.53
2023-09-23T13:35:11.261Z,96259.38
2023-09-23T13:37:38.177Z,96256.91
2023-09-23T13:40:05.885Z,96257.53
2023-09-23T13:42:33.150Z,96251.50
2023-09-23T13:44:59.630Z,96251.66
2023-09-23T13:47:27.031Z,96253.00
2023-09-23T13:49:53.932Z,96258.25
2023-09-23T13:52:20.422Z,96255.28
2023-09-23T13:54:47.149Z,96250.06
2023-09-23T13:57:13.989Z,96256.47
2023-09-23T13:59:40.615Z,96243.38
2023-09-23T14:02:14.006Z,96255.91
2023-09-23T14:04:40.516Z,96250.28
2023-09-23T14:07:06.874Z,96246.63
2023-09-23T14:09:34.948Z,96249.91
2023-09-23T14:12:01.770Z,96255.19
2023-09-23T14:14:28.227Z,96248.94
2023-09-23T14:16:55.090Z,96249.16
2023-09-23T14:19:21.633Z,96253.28
2023-09-23T14:21:48.592Z,96260.53
2023-09-23T14:24:15.372Z,96253.09
2023-09-23T14:26:41.827Z,96249.19
2023-09-23T14:29:08.259Z,96242.75
2023-09-23T14:31:35.020Z,96251.03
2023-09-23T14:34:02.833Z,96252.41
2023-09-23T14:36:29.179Z,96251.84
2023-09-23T14:38:55.560Z,96249.81
2023-09-23T14:41:21.948Z,96252.59
2023-09-23T14:43:48.492Z,96248.34
2023-09-23T14:46:15.371Z,96254.56
2023-09-23T14:48:42.475Z,96248.91
2023-09-23T14:51:09.012Z,96249.22
2023-09-23T14:53:35.831Z,96261.13
2023-09-23T14:56:02.277Z,96270.47
2023-09-23T14:58:28.694Z,96270.38
2023-09-23T15:00:55.394Z,96267.22
2023-09-23T15:03:21.860Z,96269.66
2023-09-23T15:05:48.378Z,96267.53
2023-09-23T15:08:15.246Z,96272.84
2023-09-23T15:10:41.813Z,96284.28
2023-09-23T15:13:08.245Z,96281.06
2023-09-23T15:15:35.081Z,96291.09
2023-09-23T15:18:01.673Z,96284.75
2023-09-23T15:20:28.788Z,96292.50
2023-09-23T15:22:55.764Z,96299.28
2023-09-23T15:25:22.193Z,96304.28
2023-09-23T15:27:48.586Z,96290.75
2023-09-23T15:30:15.538Z,96296.72
2023-09-23T15:32:41.971Z,96306.00
2023-09-23T15:35:09.015Z,96307.72
2023-09-23T15:37:35.816Z,96325.69
2023-09-23T15:40:02.219Z,96331.50
2023-09-23T15:42:29.710Z,96328.91
2023-09-23T15:44:56.695Z,96326.78
2023-09-23T15:47:23.286Z,96331.25
2023-09-23T15:49:49.724Z,96333.69
2023-09-23T15:52:17.052Z,96337.25
2023-09-23T15:54:43.406Z,96341.56
2023-09-23T15:57:11.547Z,96343.47
2023-09-23T15:59:39.040Z,96346.63
2023-09-23T16:02:05.573Z,96342.69
2023-09-23T16:04:32.970Z,96349.63
2023-09-23T16:06:59.590Z,96347.53
2023-09-23T16:09:26.063Z,96343.47
2023-09-23T16:11:53.234Z,96342.53
2023-09-23T16:14:19.823Z,96348.13
2023-09-23T16:16:46.342Z,96346.91
2023-09-23T16:19:12.796Z,96349.97
2023-09-23T16:21:39.386Z,96347.38
2023-09-23T16:24:07.086Z,96351.03
2023-09-23T16:26:33.580Z,96343.94
2023-09-23T16:29:00.109Z,96347.13
2023-09-23T16:31:26.845Z,96345.00
2023-09-23T16:33:55.476Z,96346.06
2023-09-23T16:36:23.911Z,96333.38
2023-09-23T16:38:50.600Z,96342.50
2023-09-23T16:41:17.074Z,96340.47
2023-09-23T16:43:43.872Z,96345.13
2023-09-23T16:46:10.293Z,96344.31
2023-09-23T16:48:37.022Z,96337.22
2023-09-23T16:51:03.980Z,96342.81
2023-09-23T16:53:30.414Z,96339.81
2023-09-23T16:55:56.920Z,96338.06
2023-09-23T16:58:24.306Z,96360.88
2023-09-23T17:00:50.695Z,96356.13
2023-09-23T17:03:17.311Z,96346.78
2023-09-23T17:05:48.156Z,96350.50
2023-09-23T17:08:14.632Z,96349.09
2023-09-23T17:10:41.060Z,96347.91
2023-09-23T17:13:07.889Z,96354.44
2023-09-23T17:15:34.254Z,96348.72
2023-09-23T17:18:00.979Z,96356.63
2023-09-23T17:20:28.198Z,96346.66
2023-09-23T17:22:54.590Z,96358.63
2023-09-23T17:25:20.995Z,96357.19
2023-09-23T17:27:47.894Z,96363.78
2023-09-23T17:30:14.370Z,96360.03
2023-09-23T17:32:40.983Z,96371.94
2023-09-23T17:35:08.120Z,96374.47
2023-09-23T17:37:34.609Z,96384.81
2023-09-23T17:40:00.961Z,96382.72
2023-09-23T17:42:27.793Z,96385.75
2023-09-23T17:44:54.254Z,96393.56
2023-09-23T17:47:20.868Z,96389.75
2023-09-23T17:49:47.683Z,96385.41
2023-09-23T17:52:14.071Z,96396.19
2023-09-23T17:54:40.477Z,96407.69
2023-09-23T17:57:08.945Z,96408.63
2023-09-23T17:59:37.810Z,96405.56
2023-09-23T18:02:04.962Z,96409.06
2023-09-23T18:04:31.921Z,96412.00
2023-09-23T18:06:59.724Z,96410.59
2023-09-23T18:09:26.170Z,96409.22
2023-09-23T18:11:54.423Z,96418.72
2023-09-23T18:14:20.909Z,96410.66
2023-09-23T18:16:47.490Z,96411.78
2023-09-23T18:19:14.270Z,96416.59
2023-09-23T18:21:42.192Z,96416.84
2023-09-23T18:24:10.133Z,96414.16
2023-09-23T18:26:37.316Z,96421.78
2023-09-23T18:29:04.098Z,96428.34
2023-09-23T18:31:33.251Z,96433.00
2023-09-23T18:34:00.258Z,96441.22
2023-09-23T18:36:26.834Z,96442.25
2023-09-23T18:38:53.321Z,96449.44
2023-09-23T18:41:20.163Z,96451.09
2023-09-23T18:43:46.944Z,96450.88
2023-09-23T18:46:13.571Z,96453.75
2023-09-23T18:48:40.517Z,96454.97
2023-09-23T18:51:07.522Z,96455.19
2023-09-23T18:53:35.226Z,96454.13
2023-09-23T18:56:04.557Z,96446.97
2023-09-23T18:58:31.068Z,96451.88
2023-09-23T19:00:57.763Z,96455.53
2023-09-23T19:03:25.134Z,96450.59
2023-09-23T19:05:51.805Z,96460.00
2023-09-23T19:08:18.294Z,96462.25
2023-09-23T19:10:45.569Z,96464.47
2023-09-23T19:13:11.956Z,96469.59
2023-09-23T19:15:38.379Z,96465.91
2023-09-23T19:18:05.538Z,96472.25
2023-09-23T19:20:32.353Z,96470.00
2023-09-23T19:22:59.557Z,96475.91
2023-09-23T19:25:26.388Z,96472.25
2023-09-23T19:27:52.765Z,96466.50
2023-09-23T19:30:19.469Z,96478.75
2023-09-23T19:32:47.173Z,96477.94
2023-09-23T19:35:13.967Z,96485.28
2023-09-23T19:37:40.617Z,96482.22
2023-09-23T19:40:08.138Z,96485.72
2023-09-23T19:42:35.545Z,96492.66
2023-09-23T19:45:04.657Z,96492.66
2023-09-23T19:47:32.867Z,96494.34
2023-09-23T19:50:00.552Z,96503.34
2023-09-23T19:52:30.148Z,96512.34
2023-09-23T19:54:57.168Z,96510.72
2023-09-23T19:57:23.593Z,96514.81
2023-09-23T19:59:50.014Z,96504.50
2023-09-23T20:02:17.018Z,96504.84
2023-09-23T20:04:46.064Z,96506.94
2023-09-23T20:07:13.568Z,96506.38
2023-09-23T20:09:41.145Z,96507.53
2023-09-23T20:12:08.373Z,96503.41
2023-09-23T20:14:34.822Z,96511.78
2023-09-23T20:17:04.200Z,96516.34
2023-09-23T20:19:30.758Z,96517.38
2023-09-23T20:21:57.151Z,96514.06
2023-09-23T20:24:24.466Z,96507.75
2023-09-23T20:26:53.970Z,96525.31
2023-09-23T20:29:21.521Z,96524.53
2023-09-23T20:31:50.259Z,96525.34
2023-09-23T20:34:17.981Z,96536.81
2023-09-23T20:36:45.454Z,96545.63
2023-09-23T20:39:12.050Z,96536.41
2023-09-23T20:41:38.464Z,96540.47
2023-09-23T20:44:05.669Z,96549.09
2023-09-23T20:46:33.248Z,96542.34
2023-09-23T20:49:00.377Z,96558.16
2023-09-23T20:51:26.918Z,96556.25
2023-09-23T20:53:55.974Z,96553.22
2023-09-23T20:56:22.482Z,96551.41
2023-09-23T20:58:48.855Z,96553.63
2023-09-23T21:01:15.715Z,96563.25
2023-09-23T21:03:42.749Z,96563.25
2023-09-23T21:06:09.896Z,96565.66
2023-09-23T21:08:36.793Z,96561.59
2023-09-23T21:11:03.227Z,96559.72
2023-09-23T21:13:29.677Z,96560.53
2023-09-23T21:16:06.107Z,96561.75
2023-09-23T21:18:32.769Z,96562.16
2023-09-23T21:20:59.283Z,96556.44
2023-09-23T21:23:26.295Z,96563.63
2023-09-23T21:25:53.466Z,96570.81
2023-09-23T21:28:20.243Z,96572.88
2023-09-23T21:30:47.016Z,96567.38
2023-09-23T21:33:13.629Z,96579.41
2023-09-23T21:35:40.772Z,96583.66
2023-09-23T21:38:08.934Z,96583.50
2023-09-23T21:40:41.967Z,96581.69
2023-09-23T21:43:09.422Z,96580.66
2023-09-23T21:45:39.258Z,96579.84
2023-09-23T21:48:10.083Z,96569.63
2023-09-23T21:50:36.723Z,96566.34
2023-09-23T21:53:04.282Z,96564.75
2023-09-23T21:55:31.050Z,96556.16
2023-09-23T21:57:57.601Z,96551.44
2023-09-23T22:00:27.631Z,96553.28
2023-09-23T22:03:00.475Z,96557.56
2023-09-23T22:05:30.113Z,96556.75
2023-09-23T22:07:58.903Z,96553.88
2023-09-23T22:10:29.841Z,96555.91
2023-09-23T22:12:58.026Z,96558.38
2023-09-23T22:15:26.311Z,96560.44
2023-09-23T22:17:54.515Z,96566.56
2023-09-23T22:20:25.355Z,96560.44
2023-09-23T22:22:52.574Z,96561.47
2023-09-23T22:25:22.196Z,96561.06
2023-09-23T22:27:51.988Z,96561.28
2023-09-23T22:30:19.793Z,96564.91
2023-09-23T22:32:49.497Z,96562.63
2023-09-23T22:35:16.473Z,96569.56
2023-09-23T22:37:43.109Z,96572.81
2023-09-23T22:40:20.603Z,96573.41
2023-09-23T22:42:47.876Z,96571.56
2023-09-23T22:45:24.167Z,96577.03
2023-09-23T22:48:03.970Z,96580.13
2023-09-23T22:50:30.622Z,96579.03
2023-09-23T22:52:57.657Z,96581.25
2023-09-23T22:55:25.450Z,96581.19
2023-09-23T22:57:52.269Z,96584.41
2023-09-23T23:00:22.447Z,96587.84
2023-09-23T23:02:50.334Z,96581.88
2023-09-23T23:05:17.441Z,96583.53
2023-09-23T23:07:48.572Z,96570.88
2023-09-23T23:10:16.293Z,96570.84
2023-09-23T23:12:43.829Z,96568.34
2023-09-23T23:15:16.488Z,96571.53
2023-09-23T23:17:44.783Z,96569.88
2023-09-23T23:20:24.586Z,96574.97
2023-09-23T23:22:55.745Z,96565.91
2023-09-23T23:25:25.132Z,96567.94
2023-09-23T23:27:51.799Z,96572.38
2023-09-23T23:30:19.103Z,96573.53
2023-09-23T23:32:50.757Z,96575.94
2023-09-23T23:35:22.782Z,96568.34
2023-09-23T23:37:49.601Z,96569.00
2023-09-23T23:40:17.851Z,96564.97
2023-09-23T23:42:44.861Z,96574.81
2023-09-23T23:45:11.335Z,96568.63
2023-09-23T23:47:40.961Z,96575.31
2023-09-23T23:50:08.604Z,96569.78
2023-09-23T23:52:35.186Z,96567.13
2023-09-23T23:55:03.443Z,96570.75
2023-09-23T23:57:29.875Z,96570.13
2023-09-23T23:59:56.658Z,96575.75
